Time,TemperatureF,DewpointF,PressureIn,WindDirection,WindDirectionDegrees,WindSpeedMPH,WindSpeedGustMPH,Humidity,HourlyPrecipIn,Conditions,Clouds,dailyrainin,SoftwareType,DateUTC
2013-08-02 00:08:00,79.9,-28.9,29.65,East,90,0.0,-999.0,1,-99.99,,,0.00,Acu-Link.com,2013-08-02 05:08:00,
2013-08-02 00:24:00,79.7,-29.0,29.66,SSW,202,0.0,-999.0,1,-99.99,,,0.00,Acu-Link.com,2013-08-02 05:24:00,
2013-08-02 00:39:00,79.5,-29.1,29.65,West,270,0.0,-999.0,1,-99.99,,,0.00,Acu-Link.com,2013-08-02 05:39:00,
2013-08-02 00:54:00,79.5,-29.1,29.65,South,180,2.2,-999.0,1,-99.99,,,0.00,Acu-Link.com,2013-08-02 05:54:00,
2013-08-02 01:10:00,79.5,-29.1,29.65,SSE,157,2.2,-999.0,1,-99.99,,,0.00,Acu-Link.com,2013-08-02 06:10:00,
2013-08-02 01:25:00,79.5,-29.1,29.65,SSE,157,1.1,-999.0,1,-99.99,,,0.00,Acu-Link.com,2013-08-02 06:25:00,
2013-08-02 01:40:00,79.3,-29.3,29.64,SSE,157,1.7,-999.0,1,-99.99,,,0.00,Acu-Link.com,2013-08-02 06:40:00,
2013-08-02 01:55:00,79.3,-29.3,29.64,SE,135,1.7,-999.0,1,-99.99,,,0.00,Acu-Link.com,2013-08-02 06:55:00,
2013-08-02 02:10:00,79.2,-29.3,29.64,SW,225,2.2,-999.0,1,-99.99,,,0.00,Acu-Link.com,2013-08-02 07:10:00,
2013-08-02 02:25:00,79.0,74.8,29.64,SSW,202,0.0,-999.0,87,-99.99,,,0.00,Acu-Link.com,2013-08-02 07:25:00,
2013-08-02 02:41:00,79.0,76.5,29.63,South,180,0.0,-999.0,92,-99.99,,,0.00,Acu-Link.com,2013-08-02 07:41:00,
2013-08-02 02:56:00,78.8,76.3,29.63,SSW,202,0.0,-999.0,92,-99.99,,,0.00,Acu-Link.com,2013-08-02 07:56:00,
2013-08-02 03:12:00,78.8,74.2,29.64,ESE,112,0.0,-999.0,86,-99.99,,,0.00,Acu-Link.com,2013-08-02 08:12:00,
2013-08-02 03:27:00,78.6,-29.7,29.64,WSW,247,0.0,-999.0,1,-99.99,,,0.00,Acu-Link.com,2013-08-02 08:27:00,
2013-08-02 03:42:00,79.2,-29.3,29.64,SSE,157,0.0,-999.0,1,-99.99,,,0.00,Acu-Link.com,2013-08-02 08:42:00,
2013-08-02 03:57:00,79.0,-29.4,29.64,NNE,22,0.0,-999.0,1,-99.99,,,0.00,Acu-Link.com,2013-08-02 08:57:00,
2013-08-02 04:13:00,78.6,25.4,29.64,SW,225,0.0,-999.0,14,-99.99,,,0.00,Acu-Link.com,2013-08-02 09:13:00,
2013-08-02 04:28:00,78.1,-8.9,29.65,South,180,0.0,-999.0,3,-99.99,,,0.00,Acu-Link.com,2013-08-02 09:28:00,
2013-08-02 04:43:00,77.7,-30.2,29.64,South,180,0.0,-999.0,1,-99.99,,,0.00,Acu-Link.com,2013-08-02 09:43:00,
2013-08-02 04:58:00,77.7,-30.2,29.64,SW,225,2.2,-999.0,1,-99.99,,,0.00,Acu-Link.com,2013-08-02 09:58:00,
2013-08-02 05:14:00,77.7,-30.2,29.65,SW,225,1.7,-999.0,1,-99.99,,,0.00,Acu-Link.com,2013-08-02 10:14:00,
2013-08-02 05:29:00,77.5,-30.3,29.66,SW,225,0.0,-999.0,1,-99.99,,,0.00,Acu-Link.com,2013-08-02 10:29:00,
2013-08-02 05:44:00,77.4,-30.4,29.67,SW,225,1.7,-999.0,1,-99.99,,,0.00,Acu-Link.com,2013-08-02 10:44:00,
2013-08-02 06:00:00,77.4,-30.4,29.68,SW,225,0.0,-999.0,1,-99.99,,,0.00,Acu-Link.com,2013-08-02 11:00:00,
2013-08-02 06:15:00,77.4,-30.4,29.68,SW,225,1.1,-999.0,1,-99.99,,,0.00,Acu-Link.com,2013-08-02 11:15:00,
2013-08-02 06:30:00,77.2,-30.5,29.67,SSW,202,2.2,-999.0,1,-99.99,,,0.00,Acu-Link.com,2013-08-02 11:30:00,
2013-08-02 06:45:00,77.2,-30.5,29.67,SW,225,2.7,-999.0,1,-99.99,,,0.00,Acu-Link.com,2013-08-02 11:45:00,
2013-08-02 07:01:00,77.9,-30.1,29.67,SW,225,2.2,-999.0,1,-99.99,,,0.00,Acu-Link.com,2013-08-02 12:01:00,
2013-08-02 07:16:00,79.0,-29.4,29.68,SW,225,1.1,-999.0,1,-99.99,,,0.00,Acu-Link.com,2013-08-02 12:16:00,
2013-08-02 07:47:00,80.4,-28.6,29.67,SW,225,3.2,-999.0,1,-99.99,,,0.00,Acu-Link.com,2013-08-02 12:47:00,
2013-08-02 08:18:00,82.2,-27.5,29.67,WNW,292,3.7,-999.0,1,-99.99,,,0.00,Acu-Link.com,2013-08-02 13:18:00,
2013-08-02 08:33:00,84.7,-26.1,29.67,SW,225,4.2,-999.0,1,-99.99,,,0.00,Acu-Link.com,2013-08-02 13:33:00,
2013-08-02 08:48:00,86.7,-24.9,29.67,West,270,3.7,-999.0,1,-99.99,,,0.00,Acu-Link.com,2013-08-02 13:48:00,
2013-08-02 09:03:00,87.6,-24.3,29.67,West,270,7.8,-999.0,1,-99.99,,,0.00,Acu-Link.com,2013-08-02 14:03:00,
2013-08-02 09:19:00,88.9,-23.6,29.66,West,270,4.2,-999.0,1,-99.99,,,0.00,Acu-Link.com,2013-08-02 14:19:00,
2013-08-02 09:34:00,91.2,-22.2,29.68,West,270,5.3,-999.0,1,-99.99,,,0.00,Acu-Link.com,2013-08-02 14:34:00,
2013-08-02 09:49:00,91.9,-21.8,29.69,WNW,292,6.8,-999.0,1,-99.99,,,0.00,Acu-Link.com,2013-08-02 14:49:00,
2013-08-02 10:04:00,95.0,-20.0,29.69,West,270,3.7,-999.0,1,-99.99,,,0.00,Acu-Link.com,2013-08-02 15:04:00,
2013-08-02 10:19:00,99.0,-17.6,29.70,West,270,2.7,-999.0,1,-99.99,,,0.00,Acu-Link.com,2013-08-02 15:19:00,
2013-08-02 10:35:00,96.1,-19.3,29.70,SW,225,7.3,-999.0,1,-99.99,,,0.00,Acu-Link.com,2013-08-02 15:35:00,
2013-08-02 10:50:00,98.1,-18.2,29.70,WSW,247,2.2,-999.0,1,-99.99,,,0.00,Acu-Link.com,2013-08-02 15:50:00,
2013-08-02 11:05:00,97.9,-18.3,29.69,WSW,247,5.3,-999.0,1,-99.99,,,0.00,Acu-Link.com,2013-08-02 16:05:00,
2013-08-02 11:21:00,100.2,-16.9,29.69,SW,225,2.7,-999.0,1,-99.99,,,0.00,Acu-Link.com,2013-08-02 16:21:00,
2013-08-02 11:51:00,102.0,-15.9,29.67,SSW,202,4.7,-999.0,1,-99.99,,,0.00,Acu-Link.com,2013-08-02 16:51:00,
2013-08-02 12:07:00,101.1,-16.4,29.69,SSW,202,1.1,-999.0,1,-99.99,,,0.00,Acu-Link.com,2013-08-02 17:07:00,
2013-08-02 12:22:00,102.2,-15.8,29.68,WSW,247,4.2,-999.0,1,-99.99,,,0.00,Acu-Link.com,2013-08-02 17:22:00,
2013-08-02 12:37:00,102.4,-15.7,29.68,WSW,247,4.2,-999.0,1,-99.99,,,0.00,Acu-Link.com,2013-08-02 17:37:00,
2013-08-02 12:52:00,102.7,-15.5,29.68,SW,225,2.7,-999.0,1,-99.99,,,0.00,Acu-Link.com,2013-08-02 17:52:00,
2013-08-02 13:07:00,102.7,-15.5,29.68,SW,225,3.7,-999.0,1,-99.99,,,0.00,Acu-Link.com,2013-08-02 18:07:00,
2013-08-02 13:22:00,103.8,-14.8,29.68,West,270,1.1,-999.0,1,-99.99,,,0.00,Acu-Link.com,2013-08-02 18:22:00,
2013-08-02 13:37:00,105.1,-14.1,29.67,SSE,157,3.2,-999.0,1,-99.99,,,0.00,Acu-Link.com,2013-08-02 18:37:00,
2013-08-02 13:53:00,104.4,-14.5,29.67,South,180,4.7,-999.0,1,-99.99,,,0.00,Acu-Link.com,2013-08-02 18:53:00,
2013-08-02 14:08:00,106.2,-13.4,29.67,West,270,2.2,-999.0,1,-99.99,,,0.00,Acu-Link.com,2013-08-02 19:08:00,
2013-08-02 14:23:00,103.1,-15.3,29.65,West,270,2.2,-999.0,1,-99.99,,,0.00,Acu-Link.com,2013-08-02 19:23:00,
2013-08-02 14:38:00,102.7,-15.5,29.65,NNW,337,2.7,-999.0,1,-99.99,,,0.00,Acu-Link.com,2013-08-02 19:38:00,
2013-08-02 14:54:00,104.5,-14.4,29.64,NE,45,0.0,-999.0,1,-99.99,,,0.00,Acu-Link.com,2013-08-02 19:54:00,
2013-08-02 15:09:00,104.5,-14.4,29.63,WNW,292,2.7,-999.0,1,-99.99,,,0.00,Acu-Link.com,2013-08-02 20:09:00,
2013-08-02 15:24:00,106.9,-13.0,29.63,NE,45,2.7,-999.0,1,-99.99,,,0.00,Acu-Link.com,2013-08-02 20:24:00,
2013-08-02 15:39:00,100.6,-16.7,29.63,ENE,67,3.7,-999.0,1,-99.99,,,0.00,Acu-Link.com,2013-08-02 20:39:00,
2013-08-02 15:55:00,98.6,-17.9,29.63,ESE,112,3.7,-999.0,1,-99.99,,,0.00,Acu-Link.com,2013-08-02 20:55:00,
2013-08-02 16:10:00,101.1,-16.4,29.62,SSE,157,4.2,-999.0,1,-99.99,,,0.00,Acu-Link.com,2013-08-02 21:10:00,
2013-08-02 16:25:00,104.0,-14.7,29.62,ESE,112,2.7,-999.0,1,-99.99,,,0.00,Acu-Link.com,2013-08-02 21:25:00,
2013-08-02 16:40:00,104.7,-14.3,29.62,NNE,22,4.7,-999.0,1,-99.99,,,0.00,Acu-Link.com,2013-08-02 21:40:00,
2013-08-02 16:56:00,98.1,-18.2,29.62,ENE,67,4.2,-999.0,1,-99.99,,,0.00,Acu-Link.com,2013-08-02 21:56:00,
2013-08-02 17:11:00,98.4,-18.0,29.62,NE,45,6.3,-999.0,1,-99.99,,,0.00,Acu-Link.com,2013-08-02 22:11:00,
2013-08-02 17:26:00,98.8,-17.8,29.62,SSE,157,3.2,-999.0,1,-99.99,,,0.00,Acu-Link.com,2013-08-02 22:26:00,
2013-08-02 17:56:00,98.8,-17.8,29.61,East,90,4.2,-999.0,1,-99.99,,,0.00,Acu-Link.com,2013-08-02 22:56:00,
2013-08-02 18:12:00,97.3,-18.6,29.61,ENE,67,4.2,-999.0,1,-99.99,,,0.00,Acu-Link.com,2013-08-02 23:12:00,
2013-08-02 18:27:00,96.4,-19.2,29.62,ESE,112,4.2,-999.0,1,-99.99,,,0.00,Acu-Link.com,2013-08-02 23:27:00,
2013-08-02 18:42:00,95.5,-19.7,29.62,SSE,157,3.7,-999.0,1,-99.99,,,0.00,Acu-Link.com,2013-08-02 23:42:00,
2013-08-02 18:57:00,94.5,-20.3,29.62,ESE,112,2.7,-999.0,1,-99.99,,,0.00,Acu-Link.com,2013-08-02 23:57:00,
2013-08-02 19:13:00,92.8,-21.3,29.63,ESE,112,2.2,-999.0,1,-99.99,,,0.00,Acu-Link.com,2013-08-03 00:13:00,
2013-08-02 19:28:00,90.7,-22.5,29.63,SSW,202,1.7,-999.0,1,-99.99,,,0.00,Acu-Link.com,2013-08-03 00:28:00,
2013-08-02 19:43:00,89.1,-23.5,29.64,SSE,157,2.7,-999.0,1,-99.99,,,0.00,Acu-Link.com,2013-08-03 00:43:00,
2013-08-02 19:59:00,88.0,-24.1,29.65,South,180,2.2,-999.0,1,-99.99,,,0.00,Acu-Link.com,2013-08-03 00:59:00,
2013-08-02 20:14:00,86.9,-24.8,29.65,SSW,202,2.7,-999.0,1,-99.99,,,0.00,Acu-Link.com,2013-08-03 01:14:00,
2013-08-02 20:29:00,85.8,-25.4,29.66,SSW,202,0.0,-999.0,1,-99.99,,,0.00,Acu-Link.com,2013-08-03 01:29:00,
2013-08-02 20:44:00,85.3,-25.7,29.67,SW,225,2.7,-999.0,1,-99.99,,,0.00,Acu-Link.com,2013-08-03 01:44:00,
2013-08-02 21:00:00,84.6,-26.1,29.67,South,180,1.1,-999.0,1,-99.99,,,0.00,Acu-Link.com,2013-08-03 02:00:00,
2013-08-02 21:15:00,83.8,-26.6,29.68,SW,225,1.7,-999.0,1,-99.99,,,0.00,Acu-Link.com,2013-08-03 02:15:00,
2013-08-02 21:30:00,83.3,-26.9,29.69,SSW,202,1.7,-999.0,1,-99.99,,,0.00,Acu-Link.com,2013-08-03 02:30:00,
2013-08-02 21:46:00,82.6,-27.3,29.69,West,270,0.0,-999.0,1,-99.99,,,0.00,Acu-Link.com,2013-08-03 02:46:00,
2013-08-02 22:32:00,81.7,-27.8,29.70,SSE,157,0.0,-999.0,1,-99.99,,,0.00,Acu-Link.com,2013-08-03 03:32:00,
2013-08-02 22:47:00,81.5,-27.9,29.70,South,180,0.0,-999.0,1,-99.99,,,0.00,Acu-Link.com,2013-08-03 03:47:00,
2013-08-02 23:02:00,81.0,-28.2,29.70,SSW,202,0.0,-999.0,1,-99.99,,,0.00,Acu-Link.com,2013-08-03 04:02:00,
2013-08-02 23:17:00,80.6,-28.5,29.70,South,180,0.0,-999.0,1,-99.99,,,0.00,Acu-Link.com,2013-08-03 04:17:00,
2013-08-02 23:32:00,80.2,-28.7,29.71,SSW,202,2.7,-999.0,1,-99.99,,,0.00,Acu-Link.com,2013-08-03 04:32:00,
2013-08-02 23:48:00,79.9,-28.9,29.71,SSW,202,0.0,-999.0,1,-99.99,,,0.00,Acu-Link.com,2013-08-03 04:48:00,